Terminal Aerodrome Forecast
Issued by NWS

Home | Current Version | Previous Version | Text Only | Print | Product List | Glossary On
Versions: 1 2 3 4 5 6 7 8 9 10 11 12 13 14 15 16 17 18 19
000
FTUS44 KHGX 172320
TAFSGR
TAF
KSGR 172320Z 1800/1824 12009KT P6SM SCT035 BKN060
     FM180200 08004KT P6SM SCT020 BKN050
     FM181100 02007KT P6SM SCT015 BKN040
     FM181500 03008KT P6SM BKN040=

USA.gov is the U.S. government's official web portal to all federal, state and local government web resources and services.